Time;durP1;ratioP1;P1;durP2;ratioP2;P2;SDS_P1;SDS_P2;PMS_P1;PMS_P2;Temp;Humidity;BMP_temperature;BMP_pressure;BME280_temperature;BME280_humidity;BME280_pressure;Samples;Min_cycle;Max_cycle;Signal;HPM_P1;HPM_P2
2022/03/30 00:00:23;;;;;;;13.40;10.27;;;13.60;86.30;;;;;;5132646;27;20311;-89
2022/03/30 00:02:51;;;;;;;10.52;9.45;;;13.60;87.50;;;;;;5133190;27;20224;-88
2022/03/30 00:05:20;;;;;;;12.80;11.45;;;13.50;88.00;;;;;;5132773;27;20202;-88
2022/03/30 00:07:53;;;;;;;12.35;10.57;;;13.50;89.50;;;;;;5133305;27;20238;-88
2022/03/30 00:10:22;;;;;;;10.57;9.52;;;13.40;89.30;;;;;;5136641;27;20219;-88
2022/03/30 00:12:51;;;;;;;13.77;12.38;;;13.40;90.10;;;;;;5136167;27;20257;-88
2022/03/30 00:15:19;;;;;;;13.10;10.93;;;13.40;90.30;;;;;;5137330;27;20249;-88
2022/03/30 00:17:48;;;;;;;14.13;10.75;;;13.40;91.20;;;;;;5136620;27;20289;-88
2022/03/30 00:20:16;;;;;;;13.43;10.63;;;13.40;90.90;;;;;;5136459;27;20234;-88
2022/03/30 00:22:45;;;;;;;16.45;11.82;;;13.40;91.30;;;;;;5136680;27;20243;-87
2022/03/30 00:25:15;;;;;;;21.95;10.75;;;13.40;91.40;;;;;;5136884;27;20195;-88
2022/03/30 00:27:46;;;;;;;13.63;11.93;;;13.30;92.00;;;;;;5136458;27;20305;-88
2022/03/30 00:30:16;;;;;;;11.90;10.80;;;13.30;92.40;;;;;;5136163;27;20207;-88
2022/03/30 00:32:45;;;;;;;15.27;11.38;;;13.20;93.10;;;;;;5136057;27;20231;-88
2022/03/30 00:35:14;;;;;;;12.20;10.98;;;13.20;93.30;;;;;;5135928;27;20233;-88
2022/03/30 00:37:43;;;;;;;13.80;11.27;;;13.20;93.50;;;;;;5135590;27;20290;-88
2022/03/30 00:40:16;;;;;;;13.30;10.60;;;13.20;95.90;;;;;;5136542;27;20234;-88
2022/03/30 00:42:45;;;;;;;11.90;9.98;;;13.20;94.50;;;;;;5136145;27;20286;-88
2022/03/30 00:45:15;;;;;;;11.10;9.52;;;13.20;94.90;;;;;;5135933;27;20207;-88
2022/03/30 00:47:44;;;;;;;14.18;10.23;;;13.20;95.10;;;;;;5135746;27;20306;-88
2022/03/30 00:50:16;;;;;;;11.57;9.77;;;13.10;95.50;;;;;;5135633;27;20282;-88
2022/03/30 00:52:44;;;;;;;15.27;11.25;;;13.10;95.40;;;;;;5135633;27;20234;-89
2022/03/30 00:55:17;;;;;;;14.32;11.02;;;13.10;95.70;;;;;;5135895;27;20285;-89
2022/03/30 00:57:47;;;;;;;10.27;9.38;;;13.10;95.80;;;;;;5135837;27;20227;-88
2022/03/30 01:00:16;;;;;;;12.10;10.30;;;13.00;96.40;;;;;;5135272;27;20215;-88
2022/03/30 01:02:47;;;;;;;10.40;9.35;;;13.00;96.30;;;;;;5135211;27;20313;-88
2022/03/30 01:05:16;;;;;;;11.68;10.20;;;13.00;97.30;;;;;;5135610;27;20207;-88
2022/03/30 01:07:45;;;;;;;10.85;9.23;;;13.00;98.00;;;;;;5135684;27;20314;-88
2022/03/30 01:10:17;;;;;;;12.60;11.30;;;13.00;97.80;;;;;;5135536;27;20202;-89
2022/03/30 01:12:47;;;;;;;12.13;10.02;;;13.00;98.40;;;;;;5135768;27;20279;-88
2022/03/30 01:15:17;;;;;;;12.13;9.80;;;13.00;98.20;;;;;;5135635;27;20286;-89
2022/03/30 01:17:45;;;;;;;20.55;13.50;;;13.00;98.30;;;;;;5135253;27;20199;-88
2022/03/30 01:20:16;;;;;;;11.68;10.45;;;13.00;98.20;;;;;;5135480;27;20271;-88
2022/03/30 01:22:46;;;;;;;15.65;11.27;;;13.00;98.30;;;;;;5135399;27;20235;-88
2022/03/30 01:25:15;;;;;;;9.85;8.85;;;12.90;98.30;;;;;;5135254;27;20207;-89
2022/03/30 01:27:43;;;;;;;11.30;9.65;;;12.90;98.80;;;;;;5134857;27;20229;-88
2022/03/30 01:33:03;;;;;;;11.70;9.77;;;12.70;99.50;;;;;;5135381;27;20251;-89
2022/03/30 01:35:32;;;;;;;13.50;10.38;;;12.60;99.90;;;;;;5135109;27;20203;-89
2022/03/30 01:38:02;;;;;;;23.35;10.85;;;12.60;99.90;;;;;;5134771;27;20231;-88
2022/03/30 01:40:32;;;;;;;13.00;9.55;;;12.50;99.90;;;;;;5134489;27;20203;-89
2022/03/30 01:43:00;;;;;;;12.27;11.10;;;12.50;99.90;;;;;;5134465;27;20223;-89
2022/03/30 01:45:29;;;;;;;14.05;11.40;;;12.50;99.90;;;;;;5134596;27;20210;-89
2022/03/30 01:47:59;;;;;;;10.70;9.45;;;12.40;99.90;;;;;;5134799;27;20318;-89
2022/03/30 01:50:31;;;;;;;12.43;11.13;;;12.40;99.90;;;;;;5134480;27;20214;-88
2022/03/30 01:53:01;;;;;;;11.93;10.00;;;12.30;99.90;;;;;;5134731;27;20223;-89
2022/03/30 01:55:30;;;;;;;10.77;9.68;;;12.30;99.90;;;;;;5135747;27;20206;-88
2022/03/30 01:57:58;;;;;;;13.15;10.55;;;12.30;99.90;;;;;;5135779;27;20262;-89
2022/03/30 02:00:27;;;;;;;14.00;10.45;;;12.20;99.90;;;;;;5134518;27;20254;-89
2022/03/30 02:02:55;;;;;;;12.18;10.77;;;12.20;99.90;;;;;;5134080;27;20227;-89
2022/03/30 02:05:24;;;;;;;11.25;10.18;;;12.20;99.90;;;;;;5134232;27;20601;-88
2022/03/30 02:07:52;;;;;;;12.85;10.27;;;12.20;99.90;;;;;;5134071;27;20227;-89
2022/03/30 02:10:22;;;;;;;12.20;11.00;;;12.20;99.90;;;;;;5134041;27;20295;-89
2022/03/30 02:12:50;;;;;;;12.80;10.82;;;12.10;99.90;;;;;;5134328;27;20230;-88
2022/03/30 02:15:19;;;;;;;10.10;9.02;;;12.10;99.90;;;;;;5134534;27;20203;-89
2022/03/30 02:17:47;;;;;;;12.35;10.35;;;12.10;99.90;;;;;;5133836;27;20259;-89
2022/03/30 02:20:15;;;;;;;10.82;9.80;;;12.10;99.90;;;;;;5133971;27;20223;-89
2022/03/30 02:22:44;;;;;;;12.38;10.60;;;12.10;99.90;;;;;;5133990;27;20242;-89
2022/03/30 02:25:13;;;;;;;13.15;10.38;;;12.10;99.90;;;;;;5134020;27;20207;-88
2022/03/30 02:27:43;;;;;;;13.57;10.70;;;12.00;99.90;;;;;;5134731;27;20203;-88
2022/03/30 02:30:12;;;;;;;12.10;10.80;;;12.00;99.90;;;;;;5133519;27;20195;-88
2022/03/30 02:32:44;;;;;;;11.73;10.70;;;12.00;99.90;;;;;;5133826;27;20250;-88
2022/03/30 02:35:13;;;;;;;11.20;10.18;;;11.90;99.90;;;;;;5133898;27;20203;-88
2022/03/30 02:37:42;;;;;;;11.45;9.95;;;11.90;99.90;;;;;;5133619;27;20231;-88
2022/03/30 02:40:11;;;;;;;14.07;11.80;;;11.90;99.90;;;;;;5133723;27;20206;-89
2022/03/30 02:42:39;;;;;;;14.23;11.02;;;11.90;99.90;;;;;;5137603;27;20214;-88
2022/03/30 02:45:10;;;;;;;12.82;10.88;;;11.90;99.90;;;;;;5135369;27;20258;-88
2022/03/30 02:50:23;;;;;;;13.57;11.32;;;11.90;99.90;;;;;;5133589;27;20290;-88
2022/03/30 02:52:52;;;;;;;31.23;11.18;;;11.90;99.90;;;;;;5133323;27;20226;-88
2022/03/30 02:55:20;;;;;;;13.85;12.00;;;11.90;99.90;;;;;;5133834;27;20222;-88
2022/03/30 02:57:49;;;;;;;12.98;10.95;;;11.90;99.90;;;;;;5133847;27;20203;-88
2022/03/30 03:00:19;;;;;;;13.07;11.75;;;11.90;99.90;;;;;;5133438;27;20244;-89
2022/03/30 03:02:47;;;;;;;10.80;9.73;;;11.90;99.90;;;;;;5140355;27;20231;-89
2022/03/30 03:05:15;;;;;;;11.98;10.68;;;11.90;99.90;;;;;;5133435;27;20270;-89
2022/03/30 03:07:43;;;;;;;11.95;10.50;;;11.90;99.90;;;;;;5133413;27;20290;-89
2022/03/30 03:10:12;;;;;;;13.50;10.75;;;11.90;99.90;;;;;;5133055;27;20305;-89
2022/03/30 03:12:40;;;;;;;11.45;10.30;;;11.90;99.90;;;;;;5133330;27;20287;-89
2022/03/30 03:15:09;;;;;;;14.63;11.95;;;11.90;99.90;;;;;;5133374;27;20302;-88
2022/03/30 03:17:39;;;;;;;12.73;10.70;;;11.80;99.90;;;;;;5133315;27;20299;-89
2022/03/30 03:20:08;;;;;;;17.90;11.68;;;11.80;99.90;;;;;;5133235;27;20276;-89
2022/03/30 03:22:36;;;;;;;11.93;10.70;;;11.80;99.90;;;;;;5133280;27;20226;-88
2022/03/30 03:25:10;;;;;;;11.55;10.45;;;11.90;99.90;;;;;;5133132;27;20209;-89
2022/03/30 03:27:39;;;;;;;14.63;11.52;;;11.90;99.90;;;;;;5133098;27;20207;-88
2022/03/30 03:30:08;;;;;;;11.00;9.90;;;11.90;99.90;;;;;;5133696;27;20305;-89
2022/03/30 03:32:37;;;;;;;11.48;10.43;;;11.80;99.90;;;;;;5133770;27;20222;-88
2022/03/30 03:35:09;;;;;;;11.45;10.35;;;11.80;99.90;;;;;;5133818;27;20202;-89
2022/03/30 03:37:38;;;;;;;12.30;11.05;;;11.70;99.90;;;;;;5133424;27;20206;-89
2022/03/30 03:40:08;;;;;;;12.00;10.82;;;11.70;99.90;;;;;;5133244;27;20291;-88
2022/03/30 03:42:38;;;;;;;15.95;11.02;;;11.70;99.90;;;;;;5133391;27;20251;-88
2022/03/30 03:45:10;;;;;;;14.57;11.93;;;11.70;99.90;;;;;;5137037;27;20218;-89
2022/03/30 03:47:41;;;;;;;14.70;12.73;;;11.70;99.90;;;;;;5137189;27;20238;-88
2022/03/30 03:50:11;;;;;;;15.13;12.13;;;11.70;99.90;;;;;;5136843;27;20215;-89
2022/03/30 03:52:39;;;;;;;12.88;11.25;;;11.70;99.90;;;;;;5136440;27;20251;-88
2022/03/30 03:55:09;;;;;;;11.80;10.70;;;11.70;99.90;;;;;;5136728;27;20203;-89
2022/03/30 03:57:38;;;;;;;11.18;10.07;;;11.70;99.90;;;;;;5137060;27;20238;-89
2022/03/30 04:00:09;;;;;;;13.55;11.57;;;11.70;99.90;;;;;;5137270;27;20203;-89
2022/03/30 04:02:38;;;;;;;14.25;11.27;;;11.70;99.90;;;;;;5137470;27;20321;-88
2022/03/30 04:05:08;;;;;;;17.13;13.50;;;11.70;99.90;;;;;;5137611;27;20279;-89
2022/03/30 04:07:38;;;;;;;12.90;11.63;;;11.70;99.90;;;;;;5137803;27;20286;-88
2022/03/30 04:10:07;;;;;;;14.57;11.65;;;11.70;99.90;;;;;;5137634;27;20279;-88
2022/03/30 04:12:36;;;;;;;12.68;10.93;;;11.70;99.90;;;;;;5137497;27;20282;-89
2022/03/30 04:15:05;;;;;;;15.80;11.77;;;11.70;99.90;;;;;;5137544;27;20242;-88
2022/03/30 04:17:33;;;;;;;13.00;11.68;;;11.60;99.90;;;;;;5137694;27;20302;-89
2022/03/30 04:20:02;;;;;;;14.68;11.55;;;11.50;99.90;;;;;;5137416;27;20229;-88
2022/03/30 04:22:30;;;;;;;15.40;13.05;;;11.60;99.90;;;;;;5136974;27;20298;-88
2022/03/30 04:25:00;;;;;;;14.75;11.88;;;11.60;99.90;;;;;;5137412;27;20215;-88
2022/03/30 04:27:28;;;;;;;14.30;11.63;;;11.60;99.90;;;;;;5137776;27;20207;-88
2022/03/30 04:29:57;;;;;;;17.15;12.80;;;11.60;99.90;;;;;;5137078;27;20253;-88
2022/03/30 04:32:25;;;;;;;14.52;11.13;;;11.60;99.90;;;;;;5137190;27;20287;-88
2022/03/30 04:34:53;;;;;;;13.05;11.35;;;11.60;99.90;;;;;;5136963;27;20204;-88
2022/03/30 04:37:22;;;;;;;12.70;10.68;;;11.50;99.90;;;;;;5137198;27;20380;-89
2022/03/30 04:39:50;;;;;;;11.88;10.25;;;11.60;99.90;;;;;;5136709;27;20214;-88
2022/03/30 04:42:21;;;;;;;11.52;10.45;;;11.60;99.90;;;;;;5137130;27;20223;-89
2022/03/30 04:44:49;;;;;;;14.63;11.93;;;11.60;99.90;;;;;;5136371;27;20267;-88
2022/03/30 04:47:17;;;;;;;11.63;10.48;;;11.60;99.90;;;;;;5137160;27;20203;-89
2022/03/30 04:49:46;;;;;;;13.48;11.82;;;11.60;99.90;;;;;;5136660;27;20280;-89
2022/03/30 04:52:14;;;;;;;15.75;11.30;;;11.60;99.90;;;;;;5136809;27;20302;-88
2022/03/30 04:54:43;;;;;;;13.50;11.45;;;11.60;99.90;;;;;;5136381;27;20203;-89
2022/03/30 04:57:11;;;;;;;11.25;10.20;;;11.60;99.90;;;;;;5136511;27;20208;-88
2022/03/30 04:59:45;;;;;;;15.73;11.23;;;11.50;99.90;;;;;;5136142;27;20270;-88
2022/03/30 05:02:14;;;;;;;13.63;11.15;;;11.50;99.90;;;;;;5136989;27;20283;-88
2022/03/30 05:04:42;;;;;;;13.70;10.32;;;11.50;99.90;;;;;;5136778;27;20207;-88
2022/03/30 05:07:11;;;;;;;13.73;10.93;;;11.50;99.90;;;;;;5137164;27;20207;-88
2022/03/30 05:09:39;;;;;;;11.18;10.02;;;11.40;99.90;;;;;;5136507;27;20250;-88
2022/03/30 05:12:08;;;;;;;11.80;10.60;;;11.40;99.90;;;;;;5136376;27;20318;-88
2022/03/30 05:14:37;;;;;;;12.38;11.10;;;11.30;99.90;;;;;;5136551;27;20294;-88
2022/03/30 05:17:08;;;;;;;12.13;10.80;;;11.30;99.90;;;;;;5136721;27;20215;-88
2022/03/30 05:19:38;;;;;;;15.05;12.18;;;11.30;99.90;;;;;;5136066;27;20195;-88
2022/03/30 05:22:07;;;;;;;11.52;10.18;;;11.30;99.90;;;;;;5136131;27;20219;-88
2022/03/30 05:24:35;;;;;;;12.73;11.40;;;11.40;99.90;;;;;;5136141;27;20203;-88
2022/03/30 05:27:04;;;;;;;12.98;11.63;;;11.40;99.90;;;;;;5135980;27;20290;-88
2022/03/30 05:29:32;;;;;;;11.10;9.70;;;11.40;99.90;;;;;;5136728;27;20209;-87
2022/03/30 05:32:21;;;;;;;11.90;10.77;;;11.50;99.90;;;;;;5132404;27;20291;-87
2022/03/30 05:38:19;;;;;;;11.38;10.35;;;11.60;99.90;;;;;;5133744;27;20197;-89
2022/03/30 05:40:48;;;;;;;11.38;10.27;;;11.70;99.90;;;;;;5133565;27;20231;-88
2022/03/30 05:43:16;;;;;;;13.30;11.15;;;11.70;99.90;;;;;;5133727;27;20270;-88
2022/03/30 05:45:45;;;;;;;12.68;10.43;;;11.70;99.90;;;;;;5133648;27;20195;-89
2022/03/30 05:48:16;;;;;;;12.38;11.07;;;11.80;99.90;;;;;;5133680;27;20202;-89
2022/03/30 05:50:51;;;;;;;12.88;11.02;;;11.90;99.90;;;;;;5133328;27;20252;-89
2022/03/30 05:53:20;;;;;;;17.50;12.63;;;11.90;99.90;;;;;;5133546;27;20399;-89
2022/03/30 05:55:48;;;;;;;15.68;12.63;;;12.10;99.90;;;;;;5133566;27;20221;-88
2022/03/30 05:58:17;;;;;;;16.25;11.93;;;12.10;99.90;;;;;;5145435;27;20206;-89
2022/03/30 06:00:46;;;;;;;12.52;11.32;;;12.20;99.90;;;;;;5153808;27;20233;-89
2022/03/30 06:03:16;;;;;;;13.77;12.43;;;12.30;99.90;;;;;;5153589;27;20297;-89
2022/03/30 06:05:45;;;;;;;12.50;10.70;;;12.30;99.90;;;;;;5153273;27;20198;-88
2022/03/30 06:08:20;;;;;;;12.88;11.65;;;12.40;99.90;;;;;;5145008;27;20195;-88
2022/03/30 06:10:50;;;;;;;14.00;12.63;;;12.50;99.90;;;;;;5114848;27;20298;-88
2022/03/30 06:13:18;;;;;;;12.90;11.68;;;12.50;99.90;;;;;;5114384;27;20212;-89
2022/03/30 06:15:47;;;;;;;16.27;13.15;;;12.60;99.90;;;;;;5125601;27;20195;-88
2022/03/30 06:18:17;;;;;;;21.75;11.77;;;12.70;99.90;;;;;;5120974;27;20204;-89
2022/03/30 06:20:46;;;;;;;12.88;11.68;;;12.70;99.90;;;;;;5114316;27;20215;-89
2022/03/30 06:23:15;;;;;;;17.95;13.57;;;12.80;99.90;;;;;;5134054;27;20218;-89
2022/03/30 06:25:43;;;;;;;13.85;11.77;;;12.90;99.90;;;;;;5155415;27;20198;-88
2022/03/30 06:28:11;;;;;;;12.80;11.48;;;13.00;99.90;;;;;;5149399;27;20278;-88
2022/03/30 06:30:40;;;;;;;17.77;12.88;;;13.00;99.90;;;;;;5134955;27;20298;-89
2022/03/30 06:33:08;;;;;;;20.75;14.10;;;13.10;99.90;;;;;;5120320;27;20295;-89
2022/03/30 06:35:39;;;;;;;16.00;12.65;;;13.10;99.90;;;;;;5116852;27;20250;-89
2022/03/30 06:38:08;;;;;;;13.48;12.18;;;13.20;99.90;;;;;;5124426;27;20261;-89
2022/03/30 06:40:37;;;;;;;15.23;12.02;;;13.20;99.90;;;;;;5138225;27;20218;-88
2022/03/30 06:43:05;;;;;;;13.18;11.60;;;13.20;99.90;;;;;;5155417;27;20218;-89
2022/03/30 06:46:01;;;;;;;15.18;13.57;;;13.30;99.90;;;;;;5129359;27;20208;-88
2022/03/30 06:48:30;;;;;;;13.70;11.07;;;13.40;99.90;;;;;;5131512;27;20214;-89
2022/03/30 06:51:00;;;;;;;12.80;11.40;;;13.50;99.90;;;;;;5125753;27;20215;-86
2022/03/30 06:53:34;;;;;;;13.43;12.05;;;13.50;99.90;;;;;;5120716;27;20203;-88
2022/03/30 06:56:06;;;;;;;17.55;12.68;;;13.60;99.90;;;;;;5114527;27;20249;-88
2022/03/30 06:58:36;;;;;;;11.68;10.52;;;13.60;99.90;;;;;;5139689;27;20202;-88
2022/03/30 07:01:05;;;;;;;13.68;12.43;;;13.70;99.90;;;;;;5128719;27;20283;-87
2022/03/30 07:03:33;;;;;;;16.17;12.93;;;13.70;99.90;;;;;;5134417;27;20230;-87
2022/03/30 07:06:11;;;;;;;13.38;11.95;;;13.80;99.90;;;;;;5122749;27;20206;-88
2022/03/30 07:11:25;;;;;;;13.98;12.57;;;13.80;99.90;;;;;;5113155;28;20227;-87
2022/03/30 07:13:56;;;;;;;16.67;11.75;;;13.90;99.90;;;;;;5118377;27;20316;-89
2022/03/30 07:16:25;;;;;;;14.15;11.85;;;14.00;99.90;;;;;;5134313;27;20203;-88
2022/03/30 07:18:55;;;;;;;14.95;12.85;;;14.20;99.90;;;;;;5138475;27;20428;-88
2022/03/30 07:21:25;;;;;;;14.30;11.57;;;14.20;99.90;;;;;;5137921;27;20306;-89
2022/03/30 07:23:53;;;;;;;14.43;12.15;;;14.10;99.90;;;;;;5135667;27;20287;-89
2022/03/30 07:26:21;;;;;;;13.02;11.57;;;14.10;99.90;;;;;;5117619;27;20241;-88
2022/03/30 07:28:51;;;;;;;15.27;12.40;;;14.20;99.90;;;;;;5117845;27;20223;-89
2022/03/30 07:31:20;;;;;;;13.10;11.38;;;14.20;99.90;;;;;;5119689;27;20235;-88
2022/03/30 07:33:48;;;;;;;15.18;12.40;;;14.30;99.90;;;;;;5143341;27;20211;-87
2022/03/30 07:36:16;;;;;;;12.38;11.18;;;14.30;99.90;;;;;;5117481;27;20199;-89
2022/03/30 07:38:46;;;;;;;24.15;11.73;;;14.30;99.90;;;;;;5117776;27;20196;-86
2022/03/30 07:41:15;;;;;;;17.15;12.07;;;14.40;99.90;;;;;;5122369;27;20283;-86
2022/03/30 07:43:43;;;;;;;12.85;11.35;;;14.50;99.70;;;;;;5129475;27;20294;-87
2022/03/30 07:46:13;;;;;;;17.52;11.60;;;14.50;99.30;;;;;;5137630;27;20210;-86
2022/03/30 07:48:42;;;;;;;15.38;12.57;;;14.60;99.50;;;;;;5137636;27;20211;-87
2022/03/30 07:51:10;;;;;;;15.00;12.27;;;14.60;98.90;;;;;;5137646;27;20302;-88
2022/03/30 07:53:39;;;;;;;14.52;11.65;;;14.70;98.80;;;;;;5137862;27;20263;-88
2022/03/30 07:56:08;;;;;;;18.23;11.32;;;14.90;98.10;;;;;;5138124;27;20202;-87
2022/03/30 07:58:37;;;;;;;12.85;10.82;;;15.00;98.00;;;;;;5137585;27;20203;-83
2022/03/30 08:01:05;;;;;;;12.27;10.77;;;15.10;97.10;;;;;;5138373;27;20227;-85
2022/03/30 08:03:34;;;;;;;12.40;11.23;;;15.00;96.20;;;;;;5158318;27;20247;-85
2022/03/30 08:06:02;;;;;;;10.63;9.68;;;14.90;95.70;;;;;;5142855;27;20293;-86
2022/03/30 08:08:31;;;;;;;12.13;10.90;;;14.80;95.70;;;;;;5123580;27;20200;-86
2022/03/30 08:10:59;;;;;;;21.23;12.23;;;14.80;96.10;;;;;;5140628;27;20258;-85
2022/03/30 08:13:29;;;;;;;11.63;10.55;;;14.80;95.90;;;;;;5157957;27;20213;-85
2022/03/30 08:15:57;;;;;;;13.77;11.43;;;14.80;95.90;;;;;;5158300;27;20316;-86
2022/03/30 08:18:28;;;;;;;16.27;13.32;;;14.90;95.70;;;;;;5146258;27;20283;-86
2022/03/30 08:23:42;;;;;;;13.73;11.80;;;14.80;95.90;;;;;;5137353;27;20199;-84
2022/03/30 08:26:11;;;;;;;12.77;11.57;;;14.80;95.90;;;;;;5136993;27;20207;-85
2022/03/30 08:28:41;;;;;;;16.30;12.23;;;14.80;95.50;;;;;;5134962;27;20267;-84
2022/03/30 08:31:09;;;;;;;14.30;12.35;;;14.90;95.50;;;;;;5116284;27;20212;-84
2022/03/30 08:33:37;;;;;;;12.07;10.88;;;15.00;95.50;;;;;;5116535;28;20257;-85
2022/03/30 08:36:07;;;;;;;14.32;12.45;;;15.00;95.20;;;;;;5116191;27;20278;-84
2022/03/30 08:38:35;;;;;;;13.10;11.70;;;15.00;95.40;;;;;;5116250;27;20286;-84
2022/03/30 08:41:04;;;;;;;16.48;12.80;;;15.10;95.20;;;;;;5116162;27;20211;-84
2022/03/30 08:43:33;;;;;;;13.27;11.88;;;15.10;95.00;;;;;;5116181;27;20431;-84
2022/03/30 08:46:04;;;;;;;13.20;11.85;;;15.10;95.10;;;;;;5116334;27;20207;-85
2022/03/30 08:48:32;;;;;;;11.85;10.65;;;15.20;95.00;;;;;;5116087;27;20261;-85
2022/03/30 08:51:01;;;;;;;20.27;12.32;;;15.40;95.60;;;;;;5115756;27;20211;-86
2022/03/30 08:53:30;;;;;;;13.80;12.48;;;15.40;94.50;;;;;;5115803;27;20254;-84
2022/03/30 08:56:00;;;;;;;14.75;11.32;;;15.40;94.50;;;;;;5115538;27;20204;-84
2022/03/30 08:58:29;;;;;;;14.65;11.88;;;15.50;94.80;;;;;;5116070;27;20216;-84
2022/03/30 09:01:09;;;;;;;15.40;11.90;;;15.40;94.10;;;;;;5115337;27;20215;-84
2022/03/30 09:03:37;;;;;;;15.02;12.48;;;15.40;94.40;;;;;;5122987;27;20202;-84
2022/03/30 09:06:06;;;;;;;12.43;11.25;;;15.50;94.70;;;;;;5156896;27;20226;-84
2022/03/30 09:08:41;;;;;;;17.30;11.30;;;15.60;94.20;;;;;;5155138;27;20230;-84
2022/03/30 09:11:20;;;;;;;17.60;13.10;;;15.90;93.60;;;;;;5135919;27;20213;-85
2022/03/30 09:14:01;;;;;;;16.60;11.57;;;16.20;93.30;;;;;;5121485;27;20194;-84
2022/03/30 09:16:42;;;;;;;16.90;11.90;;;16.50;92.40;;;;;;5115688;27;20195;-84
2022/03/30 09:19:12;;;;;;;13.68;11.35;;;16.90;92.30;;;;;;5115496;28;20206;-84
2022/03/30 09:21:45;;;;;;;17.60;12.20;;;17.10;90.70;;;;;;5124183;27;20299;-83
2022/03/30 09:24:15;;;;;;;13.18;11.70;;;17.20;90.10;;;;;;5116511;27;20204;-84
2022/03/30 09:26:44;;;;;;;11.73;9.75;;;17.20;89.10;;;;;;5115077;28;20206;-84
2022/03/30 09:29:13;;;;;;;14.07;11.60;;;17.50;89.20;;;;;;5115136;27;20278;-84
2022/03/30 09:31:43;;;;;;;11.90;10.55;;;17.80;89.30;;;;;;5114821;27;20302;-84
2022/03/30 09:34:12;;;;;;;13.88;11.18;;;18.00;86.50;;;;;;5115517;27;20203;-84
2022/03/30 09:36:41;;;;;;;13.32;10.85;;;18.00;85.80;;;;;;5115212;28;20231;-84
2022/03/30 09:39:27;;;;;;;12.02;10.60;;;18.20;85.20;;;;;;5115529;28;20208;-84
2022/03/30 09:41:58;;;;;;;11.30;9.90;;;18.50;85.20;;;;;;5120997;27;20301;-84
2022/03/30 09:44:29;;;;;;;27.88;10.00;;;18.80;81.80;;;;;;5123532;27;20230;-84
2022/03/30 09:47:08;;;;;;;12.93;11.63;;;18.50;82.30;;;;;;5115378;27;20255;-85
2022/03/30 09:49:39;;;;;;;12.23;10.57;;;18.00;82.40;;;;;;5114557;28;20203;-87
2022/03/30 09:52:13;;;;;;;12.90;11.40;;;18.00;84.00;;;;;;5114582;28;20224;-85
2022/03/30 09:54:43;;;;;;;12.10;10.88;;;17.90;82.60;;;;;;5114821;27;20284;-84
2022/03/30 09:57:14;;;;;;;12.00;10.77;;;17.70;82.80;;;;;;5114828;27;20200;-85
2022/03/30 10:00:05;;;;;;;12.30;11.10;;;17.70;84.30;;;;;;5114644;27;20196;-85
2022/03/30 10:02:37;;;;;;;11.27;10.27;;;17.80;83.60;;;;;;5114468;27;20238;-85
2022/03/30 10:05:07;;;;;;;13.93;11.60;;;17.80;82.90;;;;;;5114915;28;20212;-84
2022/03/30 10:07:35;;;;;;;16.85;10.68;;;17.80;83.80;;;;;;5128950;27;20262;-85
2022/03/30 10:10:06;;;;;;;13.40;12.00;;;17.90;82.60;;;;;;5130449;27;20188;-84
2022/03/30 10:12:34;;;;;;;13.27;11.88;;;17.80;81.20;;;;;;5114581;27;20223;-85
2022/03/30 10:15:06;;;;;;;16.10;12.40;;;17.60;82.00;;;;;;5121477;27;20211;-84
2022/03/30 10:17:36;;;;;;;12.57;11.27;;;17.20;83.20;;;;;;5133234;27;20293;-85
2022/03/30 10:20:07;;;;;;;13.48;12.07;;;17.10;83.70;;;;;;5119363;27;20278;-85
2022/03/30 10:23:20;;;;;;;11.68;10.55;;;17.10;82.70;;;;;;5114230;28;20223;-83
2022/03/30 10:26:07;;;;;;;12.25;10.75;;;17.10;83.00;;;;;;5031586;28;20322;-85
2022/03/30 10:28:51;;;;;;;14.25;10.57;;;17.10;84.80;;;;;;5126614;27;20199;-85
2022/03/30 10:31:22;;;;;;;18.17;11.73;;;17.10;83.00;;;;;;5113694;27;20223;-85
2022/03/30 10:33:54;;;;;;;10.23;9.20;;;17.10;82.20;;;;;;5113747;28;20215;-85
2022/03/30 10:36:25;;;;;;;10.40;9.40;;;17.20;81.60;;;;;;5113804;28;20275;-85
2022/03/30 10:39:24;;;;;;;11.82;10.38;;;17.10;82.60;;;;;;5116859;27;20319;-83
2022/03/30 10:42:13;;;;;;;12.20;10.30;;;17.10;82.60;;;;;;5114073;27;20224;-85
2022/03/30 10:44:43;;;;;;;31.75;10.63;;;17.20;82.30;;;;;;5134218;27;20199;-84
2022/03/30 10:47:16;;;;;;;12.73;10.65;;;17.30;81.90;;;;;;5134634;27;20207;-85
2022/03/30 10:49:50;;;;;;;10.65;9.68;;;17.30;81.60;;;;;;5114291;27;20279;-85
2022/03/30 10:52:32;;;;;;;16.25;9.88;;;17.40;80.10;;;;;;5119682;27;20247;-85
2022/03/30 10:55:29;;;;;;;9.70;8.80;;;17.50;79.90;;;;;;5130469;27;20267;-85
2022/03/30 10:58:01;;;;;;;11.40;10.02;;;17.50;80.80;;;;;;5119731;27;20210;-85
2022/03/30 11:00:31;;;;;;;15.05;11.95;;;17.70;81.00;;;;;;5130624;27;20230;-86
2022/03/30 11:03:12;;;;;;;11.65;9.45;;;17.70;80.00;;;;;;5134094;27;20230;-85
2022/03/30 11:05:45;;;;;;;16.13;10.20;;;17.90;80.10;;;;;;5116496;27;20196;-85
2022/03/30 11:08:56;;;;;;;11.18;10.05;;;18.00;78.50;;;;;;5113720;27;20204;-85
2022/03/30 11:11:26;;;;;;;10.13;9.13;;;18.10;78.70;;;;;;5116742;27;20290;-84
2022/03/30 11:14:31;;;;;;;10.85;9.82;;;18.10;78.50;;;;;;5114438;28;20224;-85
2022/03/30 11:17:00;;;;;;;11.15;9.98;;;17.80;79.20;;;;;;5124230;27;20287;-85
2022/03/30 11:19:50;;;;;;;12.65;9.88;;;17.90;80.90;;;;;;5119193;27;20195;-85
2022/03/30 11:22:26;;;;;;;11.23;9.95;;;18.10;78.60;;;;;;5121973;27;20250;-86
2022/03/30 11:25:08;;;;;;;11.88;9.77;;;18.40;78.10;;;;;;5113559;28;20278;-85
2022/03/30 11:27:37;;;;;;;16.90;9.68;;;18.70;77.00;;;;;;5113452;27;20204;-85
2022/03/30 11:30:16;;;;;;;12.70;10.35;;;18.80;76.90;;;;;;5114077;28;20207;-85
2022/03/30 11:33:06;;;;;;;15.15;9.68;;;19.00;77.90;;;;;;5111417;27;20258;-85
2022/03/30 11:35:37;;;;;;;11.25;9.77;;;19.10;77.80;;;;;;5113112;28;20203;-84
2022/03/30 11:38:10;;;;;;;9.90;9.00;;;19.30;76.70;;;;;;5113740;27;20199;-87
2022/03/30 11:40:42;;;;;;;10.20;9.15;;;19.20;77.40;;;;;;5120143;27;20286;-86
2022/03/30 11:43:11;;;;;;;18.45;10.27;;;19.50;77.70;;;;;;5154068;27;20222;-85
2022/03/30 11:46:00;;;;;;;11.35;10.27;;;19.70;75.90;;;;;;5154273;27;20286;-84
2022/03/30 11:48:36;;;;;;;14.43;10.50;;;19.90;75.90;;;;;;5154458;27;20210;-84
2022/03/30 11:51:07;;;;;;;13.13;10.18;;;19.90;75.00;;;;;;5152489;27;20206;-84
2022/03/30 11:53:39;;;;;;;10.73;9.60;;;19.90;75.40;;;;;;5133478;27;20218;-84
2022/03/30 11:56:10;;;;;;;13.82;9.75;;;20.00;74.70;;;;;;5133868;27;20239;-85
2022/03/30 11:58:40;;;;;;;10.68;9.57;;;19.70;75.00;;;;;;5133867;27;20226;-84
2022/03/30 12:01:11;;;;;;;10.25;9.35;;;19.60;75.40;;;;;;5132346;27;20250;-85
2022/03/30 12:03:40;;;;;;;10.85;9.68;;;19.50;75.20;;;;;;5133432;27;20203;-85
2022/03/30 12:06:10;;;;;;;10.73;9.63;;;19.40;75.40;;;;;;5136245;27;20217;-85
2022/03/30 12:08:44;;;;;;;10.93;9.85;;;19.40;74.50;;;;;;5136396;27;20270;-85
2022/03/30 12:11:14;;;;;;;12.40;9.73;;;19.20;74.00;;;;;;5136028;27;20318;-85
2022/03/30 12:13:43;;;;;;;12.23;9.57;;;19.00;75.20;;;;;;5135268;27;20235;-83
2022/03/30 12:16:15;;;;;;;12.23;9.13;;;18.90;76.70;;;;;;5126309;27;20294;-84
2022/03/30 12:18:45;;;;;;;10.27;9.25;;;18.80;75.90;;;;;;5129276;27;20206;-85
2022/03/30 12:21:15;;;;;;;10.70;8.93;;;18.70;75.20;;;;;;5118053;27;20251;-84
2022/03/30 12:23:56;;;;;;;8.82;8.00;;;18.50;77.20;;;;;;5117935;27;20271;-83
2022/03/30 12:26:44;;;;;;;10.73;7.97;;;18.40;76.10;;;;;;5155340;27;20190;-83
2022/03/30 12:29:15;;;;;;;12.63;9.50;;;18.50;78.40;;;;;;5141059;27;20203;-89
2022/03/30 12:31:50;;;;;;;9.85;8.85;;;18.30;75.80;;;;;;5145848;27;20230;-89
2022/03/30 12:34:21;;;;;;;9.02;8.05;;;18.40;76.30;;;;;;5157893;27;20218;-89
2022/03/30 12:36:53;;;;;;;21.83;7.93;;;18.30;78.00;;;;;;5151161;27;20211;-89
2022/03/30 12:39:24;;;;;;;8.68;7.25;;;18.40;76.20;;;;;;5133902;27;20261;-89
2022/03/30 12:42:00;;;;;;;7.78;7.03;;;18.30;73.50;;;;;;5136846;27;20291;-89
2022/03/30 12:44:30;;;;;;;8.43;6.97;;;18.20;73.40;;;;;;5136720;27;20230;-90
2022/03/30 12:47:01;;;;;;;8.20;7.22;;;18.20;73.70;;;;;;5135228;27;20280;-89
2022/03/30 12:49:38;;;;;;;7.78;7.07;;;18.00;74.20;;;;;;5118105;27;20191;-89
2022/03/30 12:52:32;;;;;;;9.95;7.45;;;18.00;74.60;;;;;;5115337;27;20302;-89
2022/03/30 12:55:19;;;;;;;15.10;7.93;;;18.00;74.50;;;;;;5115289;27;20280;-89
2022/03/30 12:58:16;;;;;;;10.25;8.52;;;18.00;75.30;;;;;;5116429;28;20199;-89
2022/03/30 13:00:46;;;;;;;10.70;7.82;;;17.90;75.40;;;;;;5115719;27;20215;-89
2022/03/30 13:03:15;;;;;;;8.80;8.00;;;17.70;75.90;;;;;;5117715;27;20280;-87
2022/03/30 13:05:47;;;;;;;10.07;8.20;;;17.70;76.30;;;;;;5116607;27;20199;-89